KBKD

Stephens County Airport

Breckenridge, Texas, USA
METAR KBKD 240155Z AUTO 13005KT 10SM CLR 29/15 A3000 RMK AO2 T02850152
Observed Flight Rules
May-24 @ 01:55 UTC (7 minutes ago) Visual Flight Rules
Wind Visibility Clouds
130° at 5 knots 10 miles
  • Clear skies
Temperatures Readings
Current 29°C / 84°F
Dewpoint 15°C / 59°F
Humidity 43%
Altimeter 30" Hg
Pressure 1016 hPa
Elevation 392
METAR KBKD 240155Z AUTO 13005KT 10SM CLR 29/15 A3000 RMK AO2 T02850152
Observed Flight Rules
May-24 @ 01:55 UTC
(7 minutes ago)
VFR
Wind Visibility
130° at 5 knots 10 miles
Clouds
  • Clear skies
Temperature Dewpoint
29°C / 84°F 15°C / 59°F
Humidity Altimeter Pressure
43% 30" Hg 1016 hPa